Time;durP1;ratioP1;P1;durP2;ratioP2;P2;SDS_P1;SDS_P2;PMS_P1;PMS_P2;Temp;Humidity;BMP_temperature;BMP_pressure;BME280_temperature;BME280_humidity;BME280_pressure;Samples;Min_cycle;Max_cycle;Signal;HPM_P1;HPM_P2
2021/12/04 00:00:15;;;;;;;38.95;26.58;;;4.70;99.90;;;;;;4996050;28;20056;-70
2021/12/04 00:02:40;;;;;;;41.22;27.67;;;4.70;99.90;;;;;;4996019;28;20402;-69
2021/12/04 00:05:08;;;;;;;38.17;26.77;;;4.70;99.90;;;;;;4995687;28;20158;-69
2021/12/04 00:07:35;;;;;;;34.88;25.15;;;4.70;99.90;;;;;;4995732;28;20049;-69
2021/12/04 00:10:03;;;;;;;43.97;26.85;;;4.70;99.90;;;;;;4995909;28;20042;-70
2021/12/04 00:12:31;;;;;;;40.60;27.60;;;4.70;99.90;;;;;;4979501;28;20037;-69
2021/12/04 00:14:57;;;;;;;42.15;26.67;;;4.70;99.90;;;;;;4979493;28;20076;-69
2021/12/04 00:17:23;;;;;;;40.70;26.75;;;4.70;99.90;;;;;;4995671;28;20057;-70
2021/12/04 00:19:49;;;;;;;41.45;27.42;;;4.70;99.90;;;;;;4995630;28;20068;-69
2021/12/04 00:22:14;;;;;;;43.55;26.55;;;4.70;99.90;;;;;;4995639;28;20107;-69
2021/12/04 00:24:40;;;;;;;40.05;26.20;;;4.70;99.90;;;;;;4995556;28;20033;-69
2021/12/04 00:27:06;;;;;;;40.83;26.85;;;4.70;99.90;;;;;;4995827;28;20081;-69
2021/12/04 00:29:32;;;;;;;42.65;27.17;;;4.70;99.90;;;;;;4995738;28;20057;-69
2021/12/04 00:32:04;;;;;;;43.13;27.65;;;4.70;99.90;;;;;;4995367;28;20052;-70
2021/12/04 00:34:32;;;;;;;42.05;26.92;;;4.70;99.90;;;;;;4995867;28;20037;-69
2021/12/04 00:50:22;;;;;;;46.80;27.63;;;4.70;99.90;;;;;;4995857;28;20050;-70
2021/12/04 00:52:48;;;;;;;47.60;27.98;;;4.70;99.90;;;;;;4995317;28;20091;-69
2021/12/04 00:55:14;;;;;;;45.78;27.67;;;4.70;99.90;;;;;;4995336;28;20049;-70
2021/12/04 00:57:39;;;;;;;51.05;28.85;;;4.70;99.90;;;;;;4998372;28;20042;-70
2021/12/04 01:00:06;;;;;;;51.97;28.60;;;4.60;99.90;;;;;;4998942;28;20049;-70
2021/12/04 01:02:32;;;;;;;56.78;29.58;;;4.60;99.90;;;;;;4998965;28;20091;-70
2021/12/04 01:04:58;;;;;;;49.80;27.05;;;4.70;99.90;;;;;;4998832;28;20081;-70
2021/12/04 01:07:25;;;;;;;48.10;27.35;;;4.70;99.90;;;;;;4999110;28;20085;-69
2021/12/04 01:09:52;;;;;;;58.67;29.05;;;4.60;99.90;;;;;;4998760;28;20038;-70
2021/12/04 01:12:17;;;;;;;49.80;27.98;;;4.60;99.90;;;;;;4998805;28;20387;-69
2021/12/04 01:14:43;;;;;;;60.15;29.35;;;4.70;99.90;;;;;;4999050;28;20045;-69
2021/12/04 01:17:09;;;;;;;55.90;28.17;;;4.60;99.90;;;;;;4998940;28;20487;-69
2021/12/04 01:19:36;;;;;;;73.72;30.58;;;4.60;99.90;;;;;;4998648;28;20044;-69
2021/12/04 01:22:03;;;;;;;60.38;28.67;;;4.60;99.90;;;;;;4998582;28;20120;-69
2021/12/04 01:24:29;;;;;;;53.65;27.70;;;4.60;99.90;;;;;;4998828;28;20041;-70
2021/12/04 01:26:54;;;;;;;55.25;27.48;;;4.60;99.90;;;;;;4998498;28;20056;-69
2021/12/04 01:29:20;;;;;;;48.85;27.27;;;4.60;99.90;;;;;;4998766;28;20034;-70
2021/12/04 01:31:46;;;;;;;56.67;27.17;;;4.60;99.90;;;;;;4998242;28;20453;-69
2021/12/04 01:34:13;;;;;;;50.53;26.75;;;4.60;99.90;;;;;;4998443;28;20076;-69
2021/12/04 01:36:39;;;;;;;46.03;24.77;;;4.60;99.90;;;;;;4998610;28;20471;-69
2021/12/04 01:39:06;;;;;;;50.15;25.60;;;4.60;99.90;;;;;;4998414;28;20501;-69
2021/12/04 01:41:33;;;;;;;38.03;23.38;;;4.60;99.90;;;;;;4998429;28;20113;-69
2021/12/04 01:43:59;;;;;;;45.33;23.60;;;4.60;99.90;;;;;;4998196;28;20037;-69
2021/12/04 01:46:29;;;;;;;35.20;22.15;;;4.60;99.90;;;;;;5014511;28;20041;-69
2021/12/04 01:48:55;;;;;;;37.70;22.42;;;4.60;99.90;;;;;;4998041;28;20040;-69
2021/12/04 01:51:21;;;;;;;32.35;20.63;;;4.60;99.90;;;;;;4998180;28;20038;-70
2021/12/04 01:53:46;;;;;;;27.30;20.08;;;4.60;99.90;;;;;;4997894;28;20466;-69
2021/12/04 01:56:12;;;;;;;31.45;20.27;;;4.60;99.90;;;;;;4998244;28;20128;-70
2021/12/04 01:58:41;;;;;;;29.80;19.40;;;4.70;99.90;;;;;;4998188;28;20410;-69
2021/12/04 02:01:07;;;;;;;24.88;18.80;;;4.60;99.90;;;;;;4997738;28;20600;-69
2021/12/04 02:03:33;;;;;;;24.67;19.08;;;4.60;99.90;;;;;;4998070;28;20045;-69
2021/12/04 02:05:59;;;;;;;21.35;17.27;;;4.70;99.90;;;;;;4997693;28;20409;-69
2021/12/04 02:08:25;;;;;;;24.60;18.42;;;4.60;99.90;;;;;;4997297;28;20041;-69
2021/12/04 02:10:53;;;;;;;26.10;17.73;;;4.70;99.90;;;;;;4997576;28;20045;-69
2021/12/04 02:13:20;;;;;;;21.90;16.55;;;4.70;99.90;;;;;;4997919;28;20119;-70
2021/12/04 02:15:47;;;;;;;20.30;16.35;;;4.70;99.90;;;;;;4997676;28;20135;-70
2021/12/04 02:18:15;;;;;;;21.70;16.17;;;4.70;99.90;;;;;;4997816;28;20050;-69
2021/12/04 02:20:41;;;;;;;20.08;16.75;;;4.70;99.90;;;;;;4997411;28;20050;-69
2021/12/04 02:23:08;;;;;;;19.23;15.57;;;4.70;99.90;;;;;;4997511;28;20073;-69
2021/12/04 02:25:34;;;;;;;19.20;16.65;;;4.70;99.90;;;;;;4981068;28;20568;-69
2021/12/04 02:28:01;;;;;;;21.40;16.60;;;4.70;99.90;;;;;;4997372;28;20037;-69
2021/12/04 02:30:29;;;;;;;19.40;15.32;;;4.70;99.90;;;;;;5021171;22;20038;-74
2021/12/04 02:32:56;;;;;;;18.98;15.25;;;4.70;99.90;;;;;;4962028;28;20035;-74
2021/12/04 02:35:25;;;;;;;20.25;16.45;;;4.70;99.90;;;;;;4978007;28;20057;-74
2021/12/04 02:37:50;;;;;;;19.52;15.98;;;4.70;99.90;;;;;;4994327;28;20116;-72
2021/12/04 02:40:19;;;;;;;20.73;16.48;;;4.70;99.90;;;;;;4977833;28;20494;-72
2021/12/04 02:42:45;;;;;;;19.60;15.85;;;4.70;99.90;;;;;;4977844;28;20097;-72
2021/12/04 02:45:12;;;;;;;19.08;16.33;;;4.70;99.90;;;;;;4977664;28;20096;-72
2021/12/04 02:47:38;;;;;;;21.10;17.15;;;4.80;99.90;;;;;;4977723;28;20038;-72
2021/12/04 02:50:07;;;;;;;22.33;17.10;;;4.70;99.90;;;;;;4977754;28;20121;-72
2021/12/04 02:52:33;;;;;;;19.90;16.55;;;4.70;99.90;;;;;;4977647;28;20042;-73
2021/12/04 02:54:59;;;;;;;22.02;17.23;;;4.70;99.90;;;;;;4977657;28;20050;-73
2021/12/04 02:57:26;;;;;;;21.67;17.83;;;4.70;99.90;;;;;;4977602;28;20038;-73
2021/12/04 02:59:53;;;;;;;20.52;16.88;;;4.70;99.90;;;;;;4961380;28;20089;-72
2021/12/04 03:02:21;;;;;;;20.73;17.42;;;4.80;99.90;;;;;;4977629;28;20035;-71
2021/12/04 03:04:49;;;;;;;21.08;17.27;;;4.70;99.90;;;;;;4977603;28;20038;-71
2021/12/04 03:07:15;;;;;;;22.00;17.48;;;4.70;99.90;;;;;;4977325;28;20039;-72
2021/12/04 03:09:41;;;;;;;18.67;15.98;;;4.70;99.90;;;;;;4977298;28;20038;-72
2021/12/04 03:12:08;;;;;;;19.83;16.35;;;4.70;99.90;;;;;;4977320;28;20096;-72
2021/12/04 03:14:34;;;;;;;20.58;16.52;;;4.70;99.90;;;;;;4962345;28;20086;-72
2021/12/04 03:17:00;;;;;;;22.95;17.20;;;4.70;99.90;;;;;;4977164;28;20069;-72
2021/12/04 03:19:26;;;;;;;18.77;16.38;;;4.70;99.90;;;;;;4976396;28;20070;-72
2021/12/04 03:21:52;;;;;;;21.30;17.67;;;4.70;99.90;;;;;;4977248;28;20038;-71
2021/12/04 03:24:19;;;;;;;21.55;16.42;;;4.70;99.90;;;;;;4977371;28;20391;-71
2021/12/04 03:26:47;;;;;;;20.85;16.48;;;4.70;99.90;;;;;;4976981;28;20042;-72
2021/12/04 03:29:19;;;;;;;20.20;15.95;;;4.70;99.90;;;;;;4960924;28;20042;-72
2021/12/04 03:32:14;;;;;;;20.83;16.13;;;4.70;99.90;;;;;;4977118;28;20081;-72
2021/12/04 03:40:22;;;;;;;21.92;16.05;;;4.70;99.90;;;;;;4976784;28;20054;-72
2021/12/04 03:42:48;;;;;;;19.45;15.27;;;4.70;99.90;;;;;;4976845;28;20096;-71
2021/12/04 03:45:14;;;;;;;22.52;15.73;;;4.60;99.90;;;;;;4960957;28;20074;-72
2021/12/04 03:47:44;;;;;;;21.08;15.95;;;4.70;99.90;;;;;;4976803;28;20077;-72
2021/12/04 03:50:10;;;;;;;22.15;15.82;;;4.60;99.90;;;;;;4960669;28;20045;-72
2021/12/04 03:52:36;;;;;;;22.13;16.45;;;4.60;99.90;;;;;;4960497;28;20038;-72
2021/12/04 03:55:04;;;;;;;24.55;17.30;;;4.70;99.90;;;;;;4992802;28;20467;-72
2021/12/04 03:57:31;;;;;;;23.05;16.05;;;4.70;99.90;;;;;;4992824;28;20042;-72
2021/12/04 03:59:59;;;;;;;21.98;16.48;;;4.60;99.90;;;;;;4976867;28;20041;-72
2021/12/04 04:02:25;;;;;;;22.10;16.13;;;4.60;99.90;;;;;;4960600;28;20572;-72
2021/12/04 04:04:50;;;;;;;24.95;16.92;;;4.60;99.90;;;;;;4976325;28;20039;-72
2021/12/04 04:07:16;;;;;;;24.27;16.30;;;4.60;99.90;;;;;;4976809;28;20124;-72
2021/12/04 04:09:42;;;;;;;23.02;16.20;;;4.60;99.90;;;;;;4976419;28;20046;-72
2021/12/04 04:12:08;;;;;;;28.35;16.67;;;4.60;99.90;;;;;;4976566;28;20042;-72
2021/12/04 04:14:33;;;;;;;25.00;16.08;;;4.60;99.90;;;;;;4976681;28;20046;-72
2021/12/04 04:16:59;;;;;;;24.20;16.10;;;4.50;99.90;;;;;;4976398;28;20490;-72
2021/12/04 04:19:26;;;;;;;25.42;16.40;;;4.60;99.90;;;;;;4976493;28;20133;-72
2021/12/04 04:21:56;;;;;;;27.63;16.55;;;4.60;99.90;;;;;;4976341;28;20057;-72
2021/12/04 04:24:23;;;;;;;28.90;17.13;;;4.60;99.90;;;;;;4960414;28;20074;-72
2021/12/04 04:26:49;;;;;;;26.27;16.63;;;4.60;99.90;;;;;;4992514;28;20050;-72
2021/12/04 04:29:15;;;;;;;23.38;15.70;;;4.50;99.90;;;;;;4992492;28;20598;-72
2021/12/04 04:31:49;;;;;;;27.00;15.93;;;4.60;99.90;;;;;;4979561;28;20038;-71
2021/12/04 04:34:29;;;;;;;25.45;16.08;;;4.50;99.90;;;;;;4980450;28;20042;-72
2021/12/04 05:14:54;;;;;;;21.60;15.43;;;4.60;99.90;;;;;;4979469;28;20112;-71
2021/12/04 05:19:54;;;;;;;23.00;14.55;;;4.70;99.90;;;;;;4979584;28;20042;-71
2021/12/04 05:22:21;;;;;;;22.40;14.57;;;4.70;99.90;;;;;;4979320;28;20085;-71
2021/12/04 05:24:47;;;;;;;25.95;14.40;;;4.70;99.90;;;;;;4979427;28;20121;-72
2021/12/04 05:27:13;;;;;;;23.90;14.93;;;4.70;99.90;;;;;;4995406;28;20122;-72
2021/12/04 05:29:39;;;;;;;23.42;13.73;;;4.70;99.90;;;;;;4979447;28;20058;-72
2021/12/04 05:32:06;;;;;;;21.52;14.02;;;4.80;99.90;;;;;;4979018;28;20067;-72
2021/12/04 05:34:32;;;;;;;22.70;14.55;;;4.80;99.90;;;;;;4995299;28;20077;-72
2021/12/04 05:36:58;;;;;;;19.17;14.65;;;4.80;99.90;;;;;;4979307;28;20100;-72
2021/12/04 05:39:24;;;;;;;20.27;14.48;;;4.80;99.90;;;;;;4979133;28;20034;-72
2021/12/04 05:41:51;;;;;;;20.77;14.13;;;4.80;99.90;;;;;;4977930;28;20049;-72
2021/12/04 05:44:19;;;;;;;22.38;14.20;;;4.90;99.90;;;;;;4978907;28;20053;-72
2021/12/04 05:46:57;;;;;;;21.00;13.75;;;4.90;99.90;;;;;;4978859;28;20096;-72
2021/12/04 05:49:35;;;;;;;20.30;13.90;;;4.90;99.90;;;;;;4962807;28;20121;-72
2021/12/04 05:52:12;;;;;;;20.27;15.23;;;4.90;99.90;;;;;;4962863;28;20491;-72
2021/12/04 05:57:05;;;;;;;23.50;13.90;;;4.90;99.90;;;;;;4978979;28;20050;-72
2021/12/04 05:59:31;;;;;;;19.38;13.48;;;4.90;99.90;;;;;;4978691;28;20034;-72
2021/12/04 06:01:57;;;;;;;16.75;12.73;;;4.90;99.90;;;;;;4978773;28;20045;-72
2021/12/04 06:04:23;;;;;;;21.67;13.98;;;5.00;99.90;;;;;;4978841;28;20042;-72
2021/12/04 06:06:48;;;;;;;18.98;12.40;;;5.00;99.90;;;;;;4978475;28;20046;-71
2021/12/04 06:09:14;;;;;;;17.65;12.77;;;5.00;99.90;;;;;;4978451;28;20034;-72
2021/12/04 06:11:40;;;;;;;20.25;12.60;;;4.90;99.90;;;;;;4994811;28;20097;-72
2021/12/04 06:14:05;;;;;;;19.27;13.80;;;4.90;99.90;;;;;;4978458;28;20586;-72
2021/12/04 06:16:31;;;;;;;16.67;12.55;;;4.90;99.90;;;;;;4994533;28;20043;-72
2021/12/04 06:18:59;;;;;;;19.73;13.60;;;4.90;99.90;;;;;;4978362;28;20042;-72
2021/12/04 06:24:09;;;;;;;20.48;13.48;;;4.90;99.90;;;;;;4978222;28;20046;-72
2021/12/04 06:26:36;;;;;;;20.58;13.93;;;4.90;99.90;;;;;;4961943;28;20053;-72
2021/12/04 06:29:03;;;;;;;24.58;14.15;;;4.90;99.90;;;;;;4978274;28;20042;-72
2021/12/04 06:31:31;;;;;;;20.80;13.30;;;4.90;99.90;;;;;;4977923;28;20560;-72
2021/12/04 06:33:57;;;;;;;19.88;14.00;;;4.90;99.90;;;;;;4977972;28;20034;-72
2021/12/04 06:36:24;;;;;;;17.38;13.00;;;4.90;99.90;;;;;;4962197;28;20046;-71
2021/12/04 06:38:50;;;;;;;20.42;13.57;;;4.90;99.90;;;;;;4977827;28;20046;-73
2021/12/04 06:41:16;;;;;;;18.33;13.80;;;4.90;99.90;;;;;;4977694;28;20072;-72
2021/12/04 06:43:47;;;;;;;25.10;14.85;;;4.90;99.90;;;;;;4977714;28;20081;-72
2021/12/04 06:46:14;;;;;;;22.95;14.57;;;4.90;99.90;;;;;;4977635;28;20042;-72
2021/12/04 06:49:24;;;;;;;22.40;13.95;;;4.90;99.90;;;;;;4977635;28;20042;-72
2021/12/04 06:51:37;;;;;;;26.02;14.07;;;4.90;99.90;;;;;;4972396;28;20034;-73
2021/12/04 06:54:12;;;;;;;24.77;15.23;;;4.90;99.90;;;;;;4977702;28;20514;-72
2021/12/04 06:56:41;;;;;;;23.00;15.05;;;4.90;99.90;;;;;;4977785;28;20057;-72
2021/12/04 06:59:12;;;;;;;24.40;14.80;;;4.90;99.90;;;;;;4977631;28;20148;-73
2021/12/04 07:01:39;;;;;;;22.08;13.98;;;4.90;99.90;;;;;;4961519;28;20053;-72
2021/12/04 07:04:05;;;;;;;24.98;14.27;;;4.90;99.90;;;;;;4993728;28;20053;-72
2021/12/04 07:06:30;;;;;;;21.98;15.18;;;5.00;99.90;;;;;;4993400;28;20038;-72
2021/12/04 07:08:57;;;;;;;24.55;16.20;;;5.00;99.90;;;;;;4977488;28;20046;-72
2021/12/04 07:11:23;;;;;;;24.42;14.70;;;5.00;99.90;;;;;;4977076;28;20097;-72
2021/12/04 07:13:49;;;;;;;21.27;13.73;;;5.00;99.90;;;;;;4978190;28;20366;-72
2021/12/04 07:16:18;;;;;;;28.65;14.10;;;5.00;99.90;;;;;;4977067;28;20133;-72
2021/12/04 07:18:43;;;;;;;20.27;14.60;;;5.00;99.90;;;;;;4960929;28;20042;-72
2021/12/04 07:21:09;;;;;;;18.85;13.55;;;5.00;99.90;;;;;;4977118;28;20092;-72
2021/12/04 07:23:35;;;;;;;20.67;12.93;;;5.00;99.90;;;;;;4977014;28;20422;-73
2021/12/04 07:26:01;;;;;;;23.85;13.25;;;4.90;99.90;;;;;;4976885;28;20074;-74
2021/12/04 07:28:27;;;;;;;25.48;13.70;;;5.00;99.90;;;;;;4977152;28;20057;-74
2021/12/04 07:30:54;;;;;;;20.08;12.75;;;5.00;99.90;;;;;;4977378;28;20038;-74
2021/12/04 07:33:19;;;;;;;23.15;12.70;;;5.00;99.90;;;;;;4976823;28;20514;-74
2021/12/04 07:35:45;;;;;;;31.52;14.52;;;5.00;99.90;;;;;;4976993;28;20057;-74
2021/12/04 07:38:13;;;;;;;28.30;12.77;;;5.00;99.90;;;;;;4976653;28;20517;-73
2021/12/04 07:40:40;;;;;;;25.65;13.52;;;5.00;99.90;;;;;;4976677;28;20046;-74
2021/12/04 07:43:05;;;;;;;29.55;13.32;;;5.00;99.90;;;;;;4976724;28;20038;-74
2021/12/04 07:45:32;;;;;;;28.88;12.52;;;5.00;99.90;;;;;;4976565;28;20197;-74
2021/12/04 07:47:58;;;;;;;20.33;11.80;;;5.00;99.90;;;;;;4992790;28;20046;-74
2021/12/04 07:50:24;;;;;;;24.08;12.55;;;5.00;99.90;;;;;;4976505;28;20048;-74
2021/12/04 07:52:50;;;;;;;24.58;12.43;;;4.90;99.90;;;;;;4976642;28;20034;-74
2021/12/04 07:55:15;;;;;;;21.08;12.35;;;4.90;99.90;;;;;;4976483;28;20031;-74
2021/12/04 07:57:41;;;;;;;19.95;11.88;;;4.90;99.90;;;;;;4992623;28;20050;-74
2021/12/04 08:00:11;;;;;;;15.80;11.38;;;4.90;99.90;;;;;;4976703;28;20069;-73
2021/12/04 08:02:38;;;;;;;16.92;11.02;;;5.00;99.90;;;;;;4976343;28;20050;-74
2021/12/04 08:05:05;;;;;;;13.90;9.65;;;4.90;99.90;;;;;;4975838;28;20121;-74
2021/12/04 08:07:31;;;;;;;15.13;9.60;;;5.00;99.90;;;;;;4976659;28;20101;-74
2021/12/04 08:09:56;;;;;;;13.43;9.98;;;4.90;99.90;;;;;;4976716;28;20490;-74
2021/12/04 08:12:22;;;;;;;11.55;9.68;;;4.90;99.90;;;;;;4976272;28;20564;-74
2021/12/04 08:14:49;;;;;;;11.93;9.60;;;4.90;99.90;;;;;;4976622;28;20066;-74
2021/12/04 08:17:14;;;;;;;11.32;9.27;;;4.90;99.90;;;;;;4960090;28;20417;-74
2021/12/04 08:19:40;;;;;;;10.73;9.50;;;4.90;99.90;;;;;;4976536;28;20135;-74
2021/12/04 08:22:06;;;;;;;11.13;9.95;;;5.00;99.90;;;;;;4976249;28;20541;-74
2021/12/04 08:24:31;;;;;;;13.32;9.50;;;5.00;99.90;;;;;;4976231;28;20129;-74
2021/12/04 08:26:57;;;;;;;11.88;10.27;;;5.00;99.90;;;;;;4976107;28;20056;-74
2021/12/04 08:29:23;;;;;;;12.93;10.10;;;5.00;99.90;;;;;;4976242;28;20188;-74
2021/12/04 08:31:50;;;;;;;12.07;10.73;;;4.90;99.90;;;;;;4960413;28;20066;-73
2021/12/04 08:34:16;;;;;;;13.93;11.25;;;5.00;99.90;;;;;;4976147;28;20043;-74
2021/12/04 08:36:42;;;;;;;13.25;11.05;;;4.90;99.90;;;;;;4976004;28;20042;-73
2021/12/04 08:39:09;;;;;;;14.90;11.35;;;4.90;99.90;;;;;;4976284;28;20030;-73
2021/12/04 08:41:36;;;;;;;17.08;12.25;;;4.90;99.90;;;;;;4959840;28;20039;-73
2021/12/04 08:44:02;;;;;;;15.30;11.55;;;5.00;99.90;;;;;;4976415;28;20042;-73
2021/12/04 08:46:28;;;;;;;16.38;11.85;;;5.00;99.90;;;;;;4976102;28;20053;-73
2021/12/04 08:48:54;;;;;;;16.52;13.07;;;5.00;99.90;;;;;;4992251;28;20121;-73
2021/12/04 08:51:22;;;;;;;19.23;13.43;;;5.00;99.90;;;;;;4975955;28;20038;-73
2021/12/04 08:53:49;;;;;;;18.55;13.65;;;5.00;99.90;;;;;;4976239;28;20046;-73
2021/12/04 08:56:15;;;;;;;18.80;13.07;;;5.00;99.90;;;;;;4976233;28;20387;-73
2021/12/04 08:58:42;;;;;;;17.70;13.00;;;5.00;99.90;;;;;;4975927;28;20038;-73
2021/12/04 09:01:12;;;;;;;19.17;13.00;;;5.00;99.90;;;;;;4976086;28;20042;-73
2021/12/04 09:03:41;;;;;;;19.60;13.25;;;5.00;99.90;;;;;;4975931;28;20131;-73
2021/12/04 09:06:07;;;;;;;21.08;12.60;;;5.00;99.90;;;;;;4975799;28;20051;-73
2021/12/04 09:08:34;;;;;;;20.55;13.05;;;5.00;99.90;;;;;;4992068;28;20045;-73
2021/12/04 09:11:05;;;;;;;17.17;12.68;;;5.10;99.90;;;;;;4975722;28;20038;-73
2021/12/04 09:13:31;;;;;;;17.42;12.75;;;5.10;99.90;;;;;;4975856;28;20046;-74
2021/12/04 09:15:57;;;;;;;19.70;12.88;;;5.10;99.90;;;;;;4959966;28;20116;-73
2021/12/04 09:18:24;;;;;;;19.60;13.18;;;5.10;99.90;;;;;;4978091;28;20101;-73
2021/12/04 09:20:51;;;;;;;20.38;12.80;;;5.00;99.90;;;;;;4979172;28;20093;-73
2021/12/04 09:23:19;;;;;;;20.58;12.73;;;5.10;99.90;;;;;;4979433;28;20112;-73
2021/12/04 09:25:51;;;;;;;20.48;13.65;;;5.10;99.90;;;;;;4995327;28;20124;-74
2021/12/04 09:28:23;;;;;;;19.95;12.43;;;5.10;99.90;;;;;;4963020;28;20042;-73
2021/12/04 10:00:56;;;;;;;19.85;12.00;;;5.20;99.90;;;;;;4978678;28;20042;-73
2021/12/04 10:33:38;;;;;;;;;;;5.30;99.90;;;;;;4978340;28;20090;-73
2021/12/04 10:36:03;;;;;;;18.92;12.23;;;5.30;99.90;;;;;;4977785;28;20301;-73
2021/12/04 10:38:38;;;;;;;23.67;14.20;;;5.30;99.90;;;;;;4978044;28;20042;-73
2021/12/04 10:41:04;;;;;;;24.15;14.63;;;5.30;99.90;;;;;;4993866;28;20038;-73
2021/12/04 10:43:31;;;;;;;21.77;14.13;;;5.40;99.90;;;;;;4993943;28;20081;-73
2021/12/04 10:46:13;;;;;;;22.20;14.23;;;5.40;99.90;;;;;;4977570;28;20057;-73
2021/12/04 10:48:46;;;;;;;26.00;15.13;;;5.40;99.90;;;;;;4993825;28;20049;-73
2021/12/04 10:51:36;;;;;;;25.92;15.32;;;5.40;99.90;;;;;;4977454;28;20046;-73
2021/12/04 10:54:32;;;;;;;26.98;16.23;;;5.40;99.90;;;;;;4961716;28;20042;-73
2021/12/04 11:00:05;;;;;;;27.33;15.50;;;5.40;99.90;;;;;;4977566;28;20046;-73
2021/12/04 11:02:44;;;;;;;23.38;15.32;;;5.40;99.90;;;;;;4977223;28;20498;-73
2021/12/04 11:25:27;;;;;;;26.93;15.90;;;5.40;99.90;;;;;;4977215;28;20042;-73
2021/12/04 11:38:42;;;;;;;27.17;15.70;;;5.40;99.90;;;;;;4976764;28;20078;-73
2021/12/04 11:41:17;;;;;;;27.80;16.98;;;5.40;99.90;;;;;;4960298;28;20061;-73
2021/12/04 11:46:50;;;;;;;28.67;17.20;;;5.50;99.90;;;;;;4975547;28;20046;-73
2021/12/04 11:49:19;;;;;;;32.60;17.80;;;5.50;99.90;;;;;;4975772;28;20038;-73
2021/12/04 11:51:48;;;;;;;31.45;18.33;;;5.50;99.90;;;;;;4976177;28;20410;-73
2021/12/04 11:54:14;;;;;;;38.58;19.75;;;5.50;99.90;;;;;;4976552;28;20038;-73
2021/12/04 11:56:40;;;;;;;35.85;20.08;;;5.50;99.90;;;;;;4976777;28;20053;-74
2021/12/04 11:59:05;;;;;;;38.25;20.75;;;5.50;99.90;;;;;;4976728;28;20045;-74
2021/12/04 12:01:34;;;;;;;35.60;20.75;;;5.50;99.90;;;;;;4976351;28;20049;-73
2021/12/04 12:04:04;;;;;;;34.42;20.05;;;5.50;99.90;;;;;;4976657;28;20072;-73
2021/12/04 12:06:34;;;;;;;38.08;20.50;;;5.50;99.90;;;;;;4976530;28;20056;-73
2021/12/04 12:09:21;;;;;;;38.50;21.70;;;5.50;99.90;;;;;;4993036;28;20057;-73
2021/12/04 12:12:02;;;;;;;42.10;22.88;;;5.50;99.90;;;;;;4960131;28;20487;-73
2021/12/04 12:14:51;;;;;;;40.13;22.63;;;5.60;99.90;;;;;;4977144;28;20078;-74
2021/12/04 12:17:34;;;;;;;44.35;23.67;;;5.60;99.90;;;;;;4976704;28;20048;-73
2021/12/04 12:20:00;;;;;;;49.55;25.20;;;5.60;99.90;;;;;;4976676;28;20125;-73
2021/12/04 12:22:54;;;;;;;47.22;24.90;;;5.60;99.90;;;;;;4976370;28;20046;-74
2021/12/04 12:33:59;;;;;;;51.65;26.27;;;5.50;99.90;;;;;;4976283;28;20132;-73
2021/12/04 12:36:29;;;;;;;47.88;26.35;;;5.50;99.90;;;;;;4976473;28;20046;-73
2021/12/04 12:38:59;;;;;;;53.28;26.90;;;5.50;99.90;;;;;;4976040;28;20046;-73
2021/12/04 12:41:30;;;;;;;51.85;27.17;;;5.50;99.90;;;;;;4975974;28;20042;-73
2021/12/04 12:44:25;;;;;;;62.22;30.05;;;5.50;99.90;;;;;;4976028;28;20049;-73
2021/12/04 12:46:58;;;;;;;59.38;28.25;;;5.50;99.90;;;;;;4975901;28;20092;-73
2021/12/04 12:49:39;;;;;;;55.85;27.52;;;5.50;99.90;;;;;;4959848;28;20038;-73
2021/12/04 12:52:10;;;;;;;59.97;28.55;;;5.50;99.90;;;;;;4994162;28;20074;-74
2021/12/04 12:54:59;;;;;;;52.65;25.73;;;5.50;99.90;;;;;;4979703;28;20453;-74
2021/12/04 12:57:41;;;;;;;52.75;25.13;;;5.50;99.90;;;;;;4979977;28;20038;-73
2021/12/04 13:14:25;;;;;;;51.50;25.75;;;5.60;99.90;;;;;;4940152;29;20047;-74
2021/12/04 13:17:16;;;;;;;51.92;26.08;;;5.60;99.90;;;;;;4924135;29;20050;-74
2021/12/04 13:19:47;;;;;;;51.30;26.63;;;5.70;99.90;;;;;;4972813;28;20051;-73
2021/12/04 13:22:27;;;;;;;49.17;24.60;;;5.70;99.90;;;;;;4979458;28;20054;-73
2021/12/04 13:24:56;;;;;;;45.60;24.73;;;5.70;99.90;;;;;;4979495;28;20129;-74
2021/12/04 13:29:53;;;;;;;46.58;25.35;;;5.60;99.90;;;;;;4979816;28;20211;-74
2021/12/04 13:32:37;;;;;;;49.10;25.80;;;5.60;99.90;;;;;;4978892;28;20049;-74
2021/12/04 13:35:12;;;;;;;47.03;25.48;;;5.70;99.90;;;;;;4979263;28;20038;-74
2021/12/04 13:37:38;;;;;;;47.80;26.15;;;5.70;99.90;;;;;;4978892;28;20042;-73
2021/12/04 13:40:08;;;;;;;51.78;27.40;;;5.70;99.90;;;;;;4979188;28;20092;-73
2021/12/04 13:42:36;;;;;;;45.90;26.35;;;5.70;99.90;;;;;;4962871;28;20057;-73
2021/12/04 13:45:04;;;;;;;49.85;27.23;;;5.70;99.90;;;;;;4978756;28;20034;-74
2021/12/04 13:47:30;;;;;;;54.17;28.70;;;5.70;99.90;;;;;;4978672;28;20100;-72
2021/12/04 13:50:06;;;;;;;56.15;29.65;;;5.70;99.90;;;;;;4994935;28;20035;-74
2021/12/04 13:52:32;;;;;;;59.83;30.50;;;5.70;99.90;;;;;;4994845;28;20462;-74
2021/12/04 13:55:08;;;;;;;55.65;30.55;;;5.70;99.90;;;;;;4994850;28;20128;-74
2021/12/04 13:57:38;;;;;;;54.05;29.02;;;5.70;99.90;;;;;;4978682;28;20042;-74
2021/12/04 14:00:04;;;;;;;59.85;30.42;;;5.70;99.90;;;;;;4979389;28;20042;-74
2021/12/04 14:02:31;;;;;;;59.67;30.70;;;5.70;99.90;;;;;;4978232;28;20042;-74
2021/12/04 14:05:03;;;;;;;52.72;30.38;;;5.70;99.90;;;;;;4994332;28;20391;-74
2021/12/04 14:07:31;;;;;;;54.50;29.15;;;5.70;99.90;;;;;;4978424;28;20038;-74
2021/12/04 14:09:57;;;;;;;51.72;29.55;;;5.70;99.90;;;;;;4978367;28;20042;-74
2021/12/04 14:12:23;;;;;;;51.78;30.50;;;5.70;99.90;;;;;;4978232;28;20041;-74
2021/12/04 14:14:49;;;;;;;55.67;30.88;;;5.70;99.90;;;;;;4978329;28;20041;-74
2021/12/04 14:17:17;;;;;;;65.65;33.40;;;5.70;99.90;;;;;;4978483;28;20042;-74
2021/12/04 14:19:43;;;;;;;58.08;31.23;;;5.70;99.90;;;;;;4962320;28;20046;-74
2021/12/04 14:22:18;;;;;;;68.68;35.30;;;5.70;99.90;;;;;;4978056;28;20081;-74
2021/12/04 14:24:59;;;;;;;71.38;36.88;;;5.70;99.90;;;;;;4978126;28;20059;-74
2021/12/04 14:27:28;;;;;;;67.40;36.50;;;5.70;99.90;;;;;;4977999;28;20046;-74
2021/12/04 14:29:58;;;;;;;69.78;37.45;;;5.70;99.90;;;;;;4977968;28;20046;-74
2021/12/04 14:32:29;;;;;;;79.07;39.47;;;5.70;99.90;;;;;;4978385;28;20039;-74
2021/12/04 14:35:03;;;;;;;71.20;37.28;;;5.70;99.90;;;;;;4977951;28;20054;-75
2021/12/04 14:37:33;;;;;;;72.60;37.38;;;5.60;99.90;;;;;;4977938;28;20035;-74
2021/12/04 14:40:00;;;;;;;71.43;36.20;;;5.60;99.90;;;;;;4978333;28;20466;-74
2021/12/04 14:42:28;;;;;;;76.28;38.92;;;5.60;99.90;;;;;;4977647;28;20052;-74
2021/12/04 14:45:04;;;;;;;68.32;36.85;;;5.60;99.90;;;;;;4977679;28;20046;-75
2021/12/04 14:47:35;;;;;;;70.78;36.95;;;5.60;99.90;;;;;;4977527;28;20042;-75
2021/12/04 14:50:02;;;;;;;70.00;37.13;;;5.60;99.90;;;;;;4977568;28;20045;-74
2021/12/04 14:52:30;;;;;;;62.78;34.45;;;5.60;99.90;;;;;;4977559;28;20038;-75
2021/12/04 14:54:56;;;;;;;71.97;36.88;;;5.60;99.90;;;;;;4977595;28;20042;-75
2021/12/04 14:57:28;;;;;;;65.25;35.25;;;5.70;99.90;;;;;;4993907;28;20038;-75
2021/12/04 15:00:03;;;;;;;62.60;34.83;;;5.60;99.90;;;;;;4977680;28;20030;-75
2021/12/04 15:02:29;;;;;;;67.50;35.33;;;5.60;99.90;;;;;;4977222;28;20406;-74
2021/12/04 15:04:55;;;;;;;65.05;34.85;;;5.60;99.90;;;;;;4977572;28;20038;-74
2021/12/04 15:07:24;;;;;;;65.13;36.20;;;5.60;99.90;;;;;;4977269;28;20042;-74
2021/12/04 15:09:51;;;;;;;61.50;33.45;;;5.60;99.90;;;;;;4978075;28;20443;-75
2021/12/04 15:12:25;;;;;;;68.70;34.20;;;5.60;99.90;;;;;;4977185;28;20558;-75
2021/12/04 15:15:04;;;;;;;61.08;33.75;;;5.60;99.90;;;;;;4976284;28;20042;-75
2021/12/04 15:17:31;;;;;;;61.08;33.55;;;5.60;99.90;;;;;;4977190;28;20509;-75
2021/12/04 15:20:06;;;;;;;58.30;32.80;;;5.60;99.90;;;;;;4977342;28;20052;-74
2021/12/04 15:22:38;;;;;;;65.90;34.03;;;5.60;99.90;;;;;;4977209;28;20049;-74
2021/12/04 15:25:24;;;;;;;60.60;33.30;;;5.60;99.90;;;;;;4993190;28;20073;-74
2021/12/04 15:27:50;;;;;;;61.72;34.38;;;5.60;99.90;;;;;;4976961;28;20046;-74
2021/12/04 15:30:18;;;;;;;65.97;35.40;;;5.60;99.90;;;;;;4976977;28;20133;-74
2021/12/04 15:32:44;;;;;;;70.32;35.72;;;5.60;99.90;;;;;;4976816;28;20085;-74
2021/12/04 15:35:45;;;;;;;57.50;32.60;;;5.60;99.90;;;;;;4977171;28;20037;-74
2021/12/04 15:38:08;;;;;;;61.40;34.55;;;5.60;99.90;;;;;;4976808;28;20112;-73
2021/12/04 15:40:45;;;;;;;76.20;37.90;;;5.50;99.90;;;;;;4976711;28;20050;-73
2021/12/04 15:52:45;;;;;;;65.38;36.58;;;5.60;99.90;;;;;;4976484;28;20415;-73
2021/12/04 15:54:29;;;;;;;72.65;36.40;;;5.60;99.90;;;;;;4976683;28;20133;-73
2021/12/04 15:56:55;;;;;;;65.75;34.80;;;5.60;99.90;;;;;;4976587;28;20104;-73
2021/12/04 15:59:31;;;;;;;63.72;35.45;;;5.60;99.90;;;;;;4976553;28;20046;-73
2021/12/04 16:02:08;;;;;;;63.05;35.38;;;5.60;99.90;;;;;;4976418;28;20049;-73